LTCS

Şanlıurfa GAP Airport

Airport
ICAO code
LTCS
IATA Code
GNY
Summary
ICAO Region
EUR
ICAO Territory
Location

Gölgen,

Serving
Sanliurfa
Coordinates
37° 26' 42" N , 38° 54' 27" E
Metar
LTCS 201620Z 33005KT 9999 FEW040 SCT100 19/07 Q1011

Airport map

Aerial View

SKYbrary Partners:

Safety knowledge contributed by: